GVNP Airport Information

Runway Information
Runway 03R Length 6876 ft width 148 ft
Elevation ft Threshold 650 ft Heading 22
Runway 21L Length 6876 ft Width 148 ft
Elevation ft Threshold ft Heading 202
Runway 03L Length 4209 ft width 98 ft
Elevation ft Threshold ft Heading 22
Runway 21R Length 4209 ft Width 98 ft
Elevation ft Threshold ft Heading 202
Runway 03 Length 6876 ft width 148 ft
Elevation 312 ft Threshold 650 ft Heading 22
Runway 21 Length 6876 ft Width 148 ft
Elevation 324 ft Threshold ft Heading 202
Airport Frequencies
Type APP Name PRAIA APP Frequency 118.2 MHZ
Type TWR Name PRAIA TWR Frequency 118.2 MHZ
Airport Navaids
Airport Weather Information & NOTAM
ADDS - METARS form results

(1608 UTC 16 August 2022)
Data provider http://aviationweather.gov/metar/data/
 
Forecast for: GVNP (PRAIA INTL , CV)
Text: TAF GVNP 161100Z 1612/1718 01014KT 9999 SCT015
Forecast period: 1200 UTC 16 August 2022 to 1800 UTC 17 August 2022
Forecast type: FROM: standard forecast or significant change
Winds: from the N (10 degrees) at 16 MPH (14 knots; 7.2 m/s)
Visibility: 6 or more miles (10+ km)
Ceiling: at least 12,000 feet AGL
Clouds: scattered clouds at 1500 feet AGL
Weather: no significant weather forecast for this period